Time;durP1;ratioP1;P1;durP2;ratioP2;P2;SDS_P1;SDS_P2;PMS_P1;PMS_P2;Temp;Humidity;BMP_temperature;BMP_pressure;BME280_temperature;BME280_humidity;BME280_pressure;Samples;Min_cycle;Max_cycle;Signal;HPM_P1;HPM_P2
2024/01/12 00:00:32;;;;;;;5.90;3.70;;;21.50;44.00;;;;;;4954587;28;92439;-86
2024/01/12 00:02:58;;;;;;;6.03;3.80;;;21.50;44.10;;;;;;4947466;28;93556;-87
2024/01/12 00:05:23;;;;;;;4.75;3.03;;;21.50;44.20;;;;;;4953350;28;92243;-84
2024/01/12 00:07:49;;;;;;;4.85;3.30;;;21.40;44.10;;;;;;4952642;28;93870;-87
2024/01/12 00:10:15;;;;;;;4.65;3.58;;;21.40;44.10;;;;;;4952002;28;92924;-83
2024/01/12 00:12:40;;;;;;;4.13;3.05;;;21.40;44.20;;;;;;4955315;28;93159;-83
2024/01/12 00:15:06;;;;;;;5.20;3.65;;;21.40;44.20;;;;;;4952636;28;93123;-83
2024/01/12 00:17:32;;;;;;;5.57;3.65;;;21.30;44.10;;;;;;4952603;28;94614;-84
2024/01/12 00:19:58;;;;;;;4.90;3.40;;;21.30;44.30;;;;;;4954555;28;92540;-86
2024/01/12 00:22:24;;;;;;;5.07;3.80;;;21.30;44.20;;;;;;4954687;28;92262;-84
2024/01/12 00:24:49;;;;;;;4.95;3.55;;;21.30;44.30;;;;;;4955427;28;92746;-87
2024/01/12 00:27:15;;;;;;;5.35;3.28;;;21.20;44.20;;;;;;4956559;28;92702;-84
2024/01/12 00:29:41;;;;;;;5.78;3.72;;;21.20;44.20;;;;;;4953585;28;93078;-84
2024/01/12 00:32:07;;;;;;;5.10;3.35;;;21.20;44.30;;;;;;4954790;28;93140;-84
2024/01/12 00:34:32;;;;;;;5.18;3.22;;;21.20;44.30;;;;;;4951629;28;92940;-86
2024/01/12 00:36:59;;;;;;;4.97;3.17;;;21.20;44.30;;;;;;4956833;28;92646;-89
2024/01/12 00:39:25;;;;;;;5.10;3.30;;;21.10;44.20;;;;;;4953780;28;92539;-84
2024/01/12 00:41:52;;;;;;;4.43;3.22;;;21.10;44.40;;;;;;4955822;28;93203;-84
2024/01/12 00:44:18;;;;;;;5.88;3.53;;;21.10;44.40;;;;;;4951194;28;92783;-84
2024/01/12 00:46:50;;;;;;;5.32;3.60;;;21.10;44.30;;;;;;4954274;28;93173;-86
2024/01/12 00:49:18;;;;;;;5.15;3.13;;;21.00;44.30;;;;;;4954209;28;92855;-83
2024/01/12 00:51:45;;;;;;;3.45;2.83;;;21.00;44.30;;;;;;4951806;28;92076;-85
2024/01/12 00:54:10;;;;;;;6.60;3.72;;;21.00;44.10;;;;;;4953472;28;92624;-84
2024/01/12 00:56:36;;;;;;;4.35;3.20;;;21.00;44.50;;;;;;4952698;28;96207;-87
2024/01/12 00:59:02;;;;;;;5.95;3.63;;;21.00;44.30;;;;;;4954615;28;93618;-89
2024/01/12 01:01:28;;;;;;;4.78;2.97;;;21.00;44.30;;;;;;4955063;28;92474;-85
2024/01/12 01:03:54;;;;;;;4.20;3.15;;;20.90;44.30;;;;;;4951526;28;92985;-88
2024/01/12 01:06:20;;;;;;;5.93;4.05;;;20.90;44.40;;;;;;4952902;28;92698;-88
2024/01/12 01:08:47;;;;;;;4.07;3.05;;;20.90;44.20;;;;;;4956414;28;93390;-86
2024/01/12 01:11:13;;;;;;;4.57;2.97;;;20.90;44.50;;;;;;4956782;28;92532;-89
2024/01/12 01:13:39;;;;;;;3.80;3.17;;;20.80;44.50;;;;;;4956576;28;92162;-87
2024/01/12 01:16:05;;;;;;;4.88;3.20;;;20.80;44.50;;;;;;4953405;28;92795;-87
2024/01/12 01:18:30;;;;;;;5.18;3.35;;;20.80;44.50;;;;;;4952271;28;93423;-87
2024/01/12 01:20:57;;;;;;;5.30;3.03;;;20.80;44.20;;;;;;4954143;28;94280;-84
2024/01/12 01:23:23;;;;;;;4.57;3.20;;;20.80;44.40;;;;;;4951434;28;93135;-88
2024/01/12 01:25:49;;;;;;;2.95;2.40;;;20.80;44.30;;;;;;4951612;28;93423;-85
2024/01/12 01:28:15;;;;;;;5.55;3.72;;;20.70;44.40;;;;;;4946526;28;93336;-86
2024/01/12 01:30:40;;;;;;;5.80;3.50;;;20.70;44.40;;;;;;4952381;28;92644;-88
2024/01/12 01:33:06;;;;;;;3.88;3.08;;;20.70;44.20;;;;;;4955235;28;92708;-89
2024/01/12 01:35:32;;;;;;;5.05;3.17;;;20.70;44.30;;;;;;4951655;28;93058;-85
2024/01/12 01:37:57;;;;;;;5.70;3.60;;;20.70;44.50;;;;;;4951228;28;93763;-85
2024/01/12 01:40:23;;;;;;;4.80;3.10;;;20.60;44.30;;;;;;4953571;28;93415;-89
2024/01/12 01:42:49;;;;;;;4.95;3.42;;;20.70;44.40;;;;;;4951779;28;93188;-83
2024/01/12 01:45:15;;;;;;;3.85;2.97;;;20.60;44.30;;;;;;4948483;28;93905;-84
2024/01/12 01:47:41;;;;;;;3.63;2.88;;;20.60;44.20;;;;;;4951618;28;93251;-88
2024/01/12 01:50:08;;;;;;;3.40;2.78;;;20.60;44.40;;;;;;4953548;28;92563;-84
2024/01/12 01:52:34;;;;;;;4.55;3.10;;;20.60;44.30;;;;;;4950955;28;92724;-86
2024/01/12 01:54:59;;;;;;;5.57;3.47;;;20.60;44.30;;;;;;4952829;28;92604;-83
2024/01/12 01:57:27;;;;;;;4.03;3.10;;;20.50;44.20;;;;;;4948261;28;94014;-89
2024/01/12 01:59:54;;;;;;;3.08;2.70;;;20.50;44.40;;;;;;4954126;28;92400;-86
2024/01/12 02:02:21;;;;;;;4.65;3.47;;;20.50;44.30;;;;;;4955029;28;91715;-87
2024/01/12 02:04:48;;;;;;;5.30;3.40;;;20.50;44.40;;;;;;4953964;28;94297;-87
2024/01/12 02:07:13;;;;;;;3.72;2.55;;;20.50;44.40;;;;;;4960226;28;93188;-90
2024/01/12 02:09:40;;;;;;;4.38;3.13;;;20.50;44.60;;;;;;4958122;28;93669;-86
2024/01/12 02:12:06;;;;;;;3.92;3.00;;;20.50;44.50;;;;;;4963685;28;92824;-88
2024/01/12 02:14:31;;;;;;;4.40;3.20;;;20.50;44.60;;;;;;4957573;28;92652;-86
2024/01/12 02:16:57;;;;;;;5.25;3.42;;;20.40;44.40;;;;;;4953049;28;92750;-84
2024/01/12 02:19:23;;;;;;;4.35;3.20;;;20.40;44.50;;;;;;4950700;28;92810;-85
2024/01/12 02:21:48;;;;;;;3.60;2.85;;;20.40;44.40;;;;;;4952517;28;92191;-87
2024/01/12 02:24:14;;;;;;;3.28;2.90;;;20.40;44.40;;;;;;4947973;28;92901;-85
2024/01/12 02:26:40;;;;;;;4.05;3.00;;;20.40;44.30;;;;;;4953149;28;92499;-86
2024/01/12 02:29:06;;;;;;;5.13;3.20;;;20.40;44.40;;;;;;4957599;28;92211;-83
2024/01/12 02:31:31;;;;;;;4.10;3.28;;;20.30;44.50;;;;;;4949551;28;93117;-87
2024/01/12 02:33:57;;;;;;;4.20;2.90;;;20.30;44.40;;;;;;4954374;28;94095;-84
2024/01/12 02:36:26;;;;;;;4.13;2.88;;;20.30;44.40;;;;;;4952705;28;93643;-85
2024/01/12 02:38:54;;;;;;;3.90;3.17;;;20.30;44.40;;;;;;4950974;28;92216;-87
2024/01/12 02:41:20;;;;;;;3.55;3.00;;;20.30;44.30;;;;;;4951399;28;93013;-85
2024/01/12 02:43:46;;;;;;;4.20;3.30;;;20.30;44.40;;;;;;4955541;28;93577;-85
2024/01/12 02:46:12;;;;;;;4.50;2.92;;;20.30;44.40;;;;;;4946670;28;94527;-87
2024/01/12 02:48:37;;;;;;;6.00;3.45;;;20.30;44.40;;;;;;4946479;28;92803;-91
2024/01/12 02:51:04;;;;;;;4.47;3.17;;;20.30;44.50;;;;;;4954361;28;92516;-84
2024/01/12 02:53:29;;;;;;;4.78;3.30;;;20.20;44.30;;;;;;4952145;28;94087;-83
2024/01/12 02:55:55;;;;;;;4.38;3.42;;;20.20;44.30;;;;;;4952046;28;92241;-89
2024/01/12 02:58:21;;;;;;;4.07;2.92;;;20.20;44.70;;;;;;4949086;28;94298;-90
2024/01/12 03:00:46;;;;;;;5.50;3.40;;;20.20;44.60;;;;;;4949943;28;94900;-86
2024/01/12 03:03:12;;;;;;;6.35;3.25;;;20.20;44.50;;;;;;4954115;28;93169;-88
2024/01/12 03:05:38;;;;;;;5.07;3.85;;;20.10;44.50;;;;;;4954890;28;94176;-87
2024/01/12 03:08:04;;;;;;;4.18;2.83;;;20.20;44.60;;;;;;4959338;28;93085;-84
2024/01/12 03:10:29;;;;;;;5.50;3.80;;;20.10;44.60;;;;;;4958305;28;93298;-88
2024/01/12 03:12:55;;;;;;;4.22;3.22;;;20.10;44.60;;;;;;4962894;28;91986;-86
2024/01/12 03:15:21;;;;;;;4.95;3.17;;;20.10;44.60;;;;;;4963359;28;92655;-88
2024/01/12 03:17:47;;;;;;;5.22;3.55;;;20.10;44.70;;;;;;4964816;28;91989;-89
2024/01/12 03:20:13;;;;;;;5.05;3.05;;;20.10;44.60;;;;;;4963191;28;93274;-88
2024/01/12 03:22:38;;;;;;;4.47;3.55;;;20.10;44.70;;;;;;4960803;28;95586;-84
2024/01/12 03:25:04;;;;;;;4.88;3.35;;;20.10;44.80;;;;;;4953730;28;92775;-83
2024/01/12 03:27:31;;;;;;;3.33;3.00;;;20.10;44.70;;;;;;4956364;28;93209;-84
2024/01/12 03:29:57;;;;;;;4.10;3.22;;;20.10;44.70;;;;;;4954048;28;92011;-84
2024/01/12 03:32:22;;;;;;;4.93;2.88;;;20.00;44.70;;;;;;4961154;28;93174;-83
2024/01/12 03:34:48;;;;;;;4.40;3.40;;;20.00;44.70;;;;;;4971932;28;93255;-85
2024/01/12 03:37:14;;;;;;;6.05;3.40;;;20.00;44.70;;;;;;4977228;28;91461;-84
2024/01/12 03:39:39;;;;;;;4.07;2.88;;;20.00;44.70;;;;;;4978108;28;90955;-85
2024/01/12 03:42:05;;;;;;;4.82;3.53;;;20.00;44.70;;;;;;4970186;28;92964;-86
2024/01/12 03:44:31;;;;;;;4.13;3.35;;;20.00;44.70;;;;;;4957781;28;94195;-85
2024/01/12 03:46:57;;;;;;;4.20;3.15;;;20.00;44.80;;;;;;4952474;28;93109;-86
2024/01/12 03:49:22;;;;;;;4.97;3.08;;;20.00;44.80;;;;;;4952833;28;92328;-85
2024/01/12 03:51:53;;;;;;;6.47;3.40;;;20.00;44.90;;;;;;4951382;28;95144;-84
2024/01/12 03:54:25;;;;;;;5.47;3.10;;;19.90;44.80;;;;;;4970763;28;95122;-86
2024/01/12 03:56:51;;;;;;;4.90;3.03;;;19.90;44.70;;;;;;4952544;28;92708;-83
2024/01/12 03:59:17;;;;;;;5.05;3.50;;;19.90;44.70;;;;;;4955147;28;92848;-85
2024/01/12 04:01:46;;;;;;;4.32;3.15;;;19.90;44.60;;;;;;4953676;28;96798;-85
2024/01/12 04:04:12;;;;;;;6.00;3.25;;;19.90;44.80;;;;;;4954872;28;92372;-85
2024/01/12 04:06:40;;;;;;;5.13;3.17;;;19.90;45.50;;;;;;4953285;28;92434;-86
2024/01/12 04:09:06;;;;;;;4.85;3.40;;;19.90;44.80;;;;;;4953502;28;92838;-83
2024/01/12 04:11:32;;;;;;;4.50;3.17;;;19.80;44.90;;;;;;4952616;28;94944;-84
2024/01/12 04:13:57;;;;;;;5.90;3.28;;;19.80;44.70;;;;;;4956413;28;94015;-87
2024/01/12 04:16:23;;;;;;;4.60;3.22;;;19.80;44.70;;;;;;4955273;28;93284;-83
2024/01/12 04:18:49;;;;;;;4.20;3.05;;;19.80;44.60;;;;;;4953569;28;92386;-83
2024/01/12 04:21:14;;;;;;;4.70;3.53;;;19.80;44.60;;;;;;4953551;28;93068;-83
2024/01/12 04:23:40;;;;;;;5.07;3.50;;;19.80;44.90;;;;;;4953436;28;92800;-83
2024/01/12 04:26:06;;;;;;;4.63;3.30;;;19.80;44.90;;;;;;4952897;28;93011;-84
2024/01/12 04:28:33;;;;;;;4.95;3.38;;;19.80;44.90;;;;;;4952121;28;92281;-86
2024/01/12 04:31:02;;;;;;;5.32;3.30;;;19.70;44.90;;;;;;4952048;28;93207;-84
2024/01/12 04:33:28;;;;;;;4.72;3.25;;;19.80;44.80;;;;;;4953140;28;93297;-85
2024/01/12 04:35:54;;;;;;;4.10;3.00;;;19.70;44.80;;;;;;4967728;28;93836;-83
2024/01/12 04:38:19;;;;;;;5.85;3.53;;;19.70;44.80;;;;;;4953878;28;92751;-86
2024/01/12 04:40:45;;;;;;;5.65;4.10;;;19.70;44.60;;;;;;4952083;28;93313;-83
2024/01/12 04:43:11;;;;;;;5.78;3.42;;;19.70;44.90;;;;;;4949554;28;92481;-83
2024/01/12 04:45:36;;;;;;;4.50;3.55;;;19.70;44.80;;;;;;4950306;28;93358;-86
2024/01/12 04:48:02;;;;;;;4.97;3.30;;;19.70;44.80;;;;;;4949909;28;93246;-83
2024/01/12 04:50:28;;;;;;;5.75;3.78;;;19.70;44.70;;;;;;4952669;28;93388;-84
2024/01/12 04:52:54;;;;;;;5.97;4.20;;;19.70;44.80;;;;;;4950302;28;92464;-85
2024/01/12 04:55:20;;;;;;;7.55;3.80;;;19.70;44.80;;;;;;4948017;28;93171;-83
2024/01/12 04:57:46;;;;;;;5.10;3.50;;;19.70;44.80;;;;;;4952272;28;93077;-86
2024/01/12 05:00:12;;;;;;;6.30;4.00;;;19.70;44.90;;;;;;4950993;28;94000;-85
2024/01/12 05:02:38;;;;;;;5.65;3.78;;;19.70;44.90;;;;;;4953582;28;93344;-83
2024/01/12 05:05:04;;;;;;;5.82;3.78;;;19.60;44.80;;;;;;4951774;28;92979;-83
2024/01/12 05:07:30;;;;;;;6.85;3.63;;;19.60;44.80;;;;;;4953435;28;92695;-84
2024/01/12 05:09:56;;;;;;;5.38;3.30;;;19.60;44.80;;;;;;4949727;28;92709;-85
2024/01/12 05:12:22;;;;;;;5.63;3.78;;;19.60;44.80;;;;;;4952931;28;93659;-87
2024/01/12 05:14:48;;;;;;;6.45;3.78;;;19.60;45.40;;;;;;4955236;28;92533;-83
2024/01/12 05:17:14;;;;;;;7.07;3.88;;;19.60;44.80;;;;;;4946015;28;92342;-85
2024/01/12 05:19:40;;;;;;;6.28;3.67;;;19.60;44.80;;;;;;4951668;28;93045;-89
2024/01/12 05:22:05;;;;;;;4.68;3.08;;;19.60;44.80;;;;;;4950746;28;92945;-86
2024/01/12 05:24:31;;;;;;;6.95;3.65;;;19.60;44.70;;;;;;4949354;28;94022;-88
2024/01/12 05:26:56;;;;;;;5.80;3.63;;;19.60;44.60;;;;;;4951527;28;92700;-88
2024/01/12 05:29:22;;;;;;;6.07;3.58;;;19.60;44.70;;;;;;4948636;28;93657;-85
2024/01/12 05:31:48;;;;;;;7.63;4.05;;;19.50;44.70;;;;;;4951698;28;92936;-84
2024/01/12 05:34:13;;;;;;;5.32;3.47;;;19.50;44.70;;;;;;4953057;28;92792;-87
2024/01/12 05:36:39;;;;;;;9.43;4.40;;;19.50;44.80;;;;;;4954868;28;92662;-85
2024/01/12 05:39:05;;;;;;;6.00;3.65;;;19.50;44.70;;;;;;4953565;28;92796;-83
2024/01/12 05:41:31;;;;;;;5.88;3.47;;;19.50;44.70;;;;;;4952367;28;92324;-83
2024/01/12 05:43:57;;;;;;;4.88;3.45;;;19.50;44.90;;;;;;4949628;28;92592;-83
2024/01/12 05:46:23;;;;;;;6.45;4.45;;;19.50;44.80;;;;;;4949804;28;92970;-83
2024/01/12 05:48:48;;;;;;;5.13;3.50;;;19.50;44.70;;;;;;4946381;28;96244;-84
2024/01/12 05:51:15;;;;;;;6.03;3.83;;;19.50;44.80;;;;;;4946892;28;94423;-85
2024/01/12 05:53:41;;;;;;;6.78;4.22;;;19.50;44.80;;;;;;4949264;28;92872;-85
2024/01/12 05:56:07;;;;;;;6.15;4.13;;;19.50;44.70;;;;;;4952904;28;93049;-84
2024/01/12 05:58:32;;;;;;;5.75;3.88;;;19.50;44.50;;;;;;4948718;28;95705;-86
2024/01/12 06:00:59;;;;;;;4.80;3.33;;;19.40;44.70;;;;;;4946545;28;92965;-85
2024/01/12 06:03:28;;;;;;;7.75;4.40;;;19.40;44.50;;;;;;4952113;28;93254;-83
2024/01/12 06:05:56;;;;;;;6.18;4.05;;;19.40;44.60;;;;;;4952799;28;91898;-83
2024/01/12 06:08:22;;;;;;;7.13;4.47;;;19.40;44.70;;;;;;4953189;28;93147;-85
2024/01/12 06:10:47;;;;;;;5.78;3.85;;;19.40;44.90;;;;;;4951781;28;93022;-86
2024/01/12 06:13:13;;;;;;;8.55;3.95;;;19.40;44.70;;;;;;4952137;28;93155;-85
2024/01/12 06:15:39;;;;;;;9.50;4.55;;;19.40;44.60;;;;;;4950226;28;92943;-83
2024/01/12 06:18:05;;;;;;;7.30;4.15;;;19.40;44.60;;;;;;4956079;28;93307;-85
2024/01/12 06:20:31;;;;;;;5.20;3.63;;;19.40;44.70;;;;;;4953770;28;92518;-84
2024/01/12 06:22:56;;;;;;;5.22;3.72;;;19.40;44.60;;;;;;4954050;28;92693;-84
2024/01/12 06:25:23;;;;;;;8.25;4.35;;;19.40;44.70;;;;;;4951806;28;92479;-83
2024/01/12 06:27:49;;;;;;;6.50;4.20;;;19.40;44.60;;;;;;4951998;28;93248;-84
2024/01/12 06:30:15;;;;;;;7.85;4.28;;;19.40;44.60;;;;;;4956565;28;92319;-85
2024/01/12 06:32:41;;;;;;;6.88;3.78;;;19.40;44.60;;;;;;4951120;28;93348;-84
2024/01/12 06:35:11;;;;;;;6.63;4.30;;;19.40;44.50;;;;;;4951065;28;99696;-88
2024/01/12 06:37:37;;;;;;;6.97;4.20;;;19.40;44.60;;;;;;4950836;28;94011;-86
2024/01/12 06:40:04;;;;;;;7.55;4.40;;;19.40;44.70;;;;;;4949083;28;93193;-82
2024/01/12 06:42:30;;;;;;;8.85;4.75;;;19.40;44.50;;;;;;4950008;28;92462;-87
2024/01/12 06:44:56;;;;;;;6.55;4.05;;;19.40;44.60;;;;;;4952708;28;92985;-87
2024/01/12 06:47:22;;;;;;;8.55;4.28;;;19.40;44.90;;;;;;4951395;28;95251;-86
2024/01/12 06:49:48;;;;;;;11.30;5.28;;;19.40;45.20;;;;;;4954268;28;92446;-86
2024/01/12 06:52:13;;;;;;;7.50;4.47;;;19.40;45.10;;;;;;4948352;28;93426;-87
2024/01/12 06:54:43;;;;;;;11.50;5.57;;;19.40;45.30;;;;;;4952085;28;92347;-85
2024/01/12 06:57:09;;;;;;;8.43;4.45;;;19.40;45.20;;;;;;4950663;28;95474;-91
2024/01/12 06:59:35;;;;;;;6.95;3.88;;;19.50;45.20;;;;;;4953928;28;92818;-86
2024/01/12 07:02:00;;;;;;;7.57;4.60;;;19.50;45.40;;;;;;4955097;28;94273;-85
2024/01/12 07:04:26;;;;;;;6.40;3.95;;;19.60;45.40;;;;;;4951638;28;93100;-85
2024/01/12 07:06:52;;;;;;;9.93;4.85;;;19.70;45.70;;;;;;4954755;28;94454;-88
2024/01/12 07:09:19;;;;;;;7.18;4.13;;;19.90;45.80;;;;;;4950983;28;92890;-89
2024/01/12 07:11:45;;;;;;;7.60;4.10;;;20.00;45.70;;;;;;4948204;28;92726;-85
2024/01/12 07:14:13;;;;;;;8.45;3.67;;;20.20;45.70;;;;;;4949851;28;93339;-85
2024/01/12 07:16:39;;;;;;;6.55;3.83;;;20.30;45.40;;;;;;4950006;28;93336;-87
2024/01/12 07:19:04;;;;;;;6.15;3.65;;;20.50;45.40;;;;;;4951562;28;93412;-93
2024/01/12 07:21:30;;;;;;;6.75;3.47;;;20.70;45.20;;;;;;4945907;28;92377;-89
2024/01/12 07:23:56;;;;;;;5.85;3.88;;;20.70;45.10;;;;;;4948159;28;92049;-86
2024/01/12 07:26:21;;;;;;;4.75;3.05;;;20.60;44.90;;;;;;4951294;28;93621;-88
2024/01/12 07:28:47;;;;;;;5.60;3.50;;;20.70;45.10;;;;;;4947646;28;94198;-85
2024/01/12 07:31:13;;;;;;;5.32;3.72;;;20.70;45.00;;;;;;4950752;28;92848;-85
2024/01/12 07:33:38;;;;;;;4.93;3.28;;;20.80;45.00;;;;;;4951333;28;93016;-86
2024/01/12 07:36:04;;;;;;;6.93;4.07;;;20.80;44.80;;;;;;4955672;28;93345;-86
2024/01/12 07:38:30;;;;;;;6.28;3.42;;;20.90;44.70;;;;;;4949391;28;92394;-93
2024/01/12 07:40:55;;;;;;;5.70;3.80;;;21.00;44.70;;;;;;4948901;28;92685;-89
2024/01/12 07:43:21;;;;;;;5.65;3.40;;;21.00;44.70;;;;;;4947404;28;92351;-90
2024/01/12 07:45:47;;;;;;;5.05;3.20;;;21.10;44.50;;;;;;4945194;28;94485;-85
2024/01/12 07:48:12;;;;;;;5.43;3.63;;;21.10;44.70;;;;;;4951931;28;92930;-90
2024/01/12 07:50:38;;;;;;;4.60;3.35;;;21.20;44.50;;;;;;4950028;28;93951;-85
2024/01/12 07:53:04;;;;;;;4.28;2.80;;;21.20;44.40;;;;;;4953689;28;92872;-91
2024/01/12 07:55:30;;;;;;;7.80;3.47;;;21.30;44.30;;;;;;4953808;28;93158;-86
2024/01/12 07:57:55;;;;;;;4.63;3.03;;;21.30;44.20;;;;;;4951617;28;92865;-91
2024/01/12 08:00:21;;;;;;;5.47;3.22;;;21.30;44.50;;;;;;4954551;28;92675;-85
2024/01/12 08:02:47;;;;;;;7.68;3.13;;;21.40;44.20;;;;;;4953605;28;92770;-87
2024/01/12 08:05:20;;;;;;;15.95;5.50;;;21.40;44.30;;;;;;4952985;28;93272;-88
2024/01/12 08:07:46;;;;;;;24.35;6.63;;;21.50;44.20;;;;;;4955387;28;94470;-93
2024/01/12 08:10:12;;;;;;;49.38;12.38;;;21.50;43.80;;;;;;4958325;28;92807;-87
2024/01/12 08:12:38;;;;;;;55.25;13.52;;;21.50;42.90;;;;;;4956676;28;93015;-88
2024/01/12 08:15:04;;;;;;;41.03;10.85;;;21.40;42.80;;;;;;4953302;28;93975;-89
2024/01/12 08:17:29;;;;;;;34.65;10.30;;;21.30;42.70;;;;;;4958994;28;93802;-89
2024/01/12 08:19:55;;;;;;;29.98;8.15;;;21.30;43.10;;;;;;4954401;28;92109;-86
2024/01/12 08:22:21;;;;;;;22.23;8.30;;;21.30;43.40;;;;;;4955526;28;92974;-86
2024/01/12 08:24:47;;;;;;;31.67;9.70;;;21.20;43.30;;;;;;4956749;28;92696;-88
2024/01/12 08:27:13;;;;;;;30.48;8.60;;;21.20;43.60;;;;;;4959545;28;92758;-88
2024/01/12 08:29:39;;;;;;;28.20;8.63;;;21.10;43.60;;;;;;4963386;28;92301;-85
2024/01/12 08:32:04;;;;;;;22.88;8.35;;;21.10;43.70;;;;;;4961553;28;91930;-85
2024/01/12 08:34:30;;;;;;;24.38;8.18;;;21.10;43.80;;;;;;4955375;28;92630;-92
2024/01/12 08:36:58;;;;;;;25.83;7.82;;;21.00;43.80;;;;;;4953272;28;92489;-89
2024/01/12 08:39:23;;;;;;;26.80;8.65;;;21.00;43.90;;;;;;4955500;28;93627;-87
2024/01/12 08:41:49;;;;;;;27.83;9.25;;;21.00;44.00;;;;;;4958377;28;91979;-90
2024/01/12 08:44:15;;;;;;;23.85;7.95;;;21.00;44.20;;;;;;4955361;28;93153;-91
2024/01/12 08:46:40;;;;;;;20.00;7.60;;;21.00;44.30;;;;;;4954685;28;92409;-85
2024/01/12 08:49:06;;;;;;;24.30;9.02;;;21.00;44.30;;;;;;4957963;28;93257;-92
2024/01/12 08:51:32;;;;;;;24.70;8.43;;;21.00;44.40;;;;;;4952922;28;92432;-91
2024/01/12 08:53:57;;;;;;;24.45;7.78;;;21.00;44.40;;;;;;4959881;28;93260;-87
2024/01/12 08:56:23;;;;;;;24.52;8.32;;;21.00;44.50;;;;;;4958210;28;94393;-87
2024/01/12 08:58:49;;;;;;;20.67;8.80;;;21.00;44.30;;;;;;4959347;28;91979;-94
2024/01/12 09:01:15;;;;;;;21.58;8.23;;;21.00;44.40;;;;;;4959185;28;92614;-88
2024/01/12 09:03:40;;;;;;;17.75;6.20;;;21.10;44.30;;;;;;4958215;28;95339;-87
2024/01/12 09:06:06;;;;;;;20.70;7.22;;;21.10;44.10;;;;;;4962823;28;93692;-91
2024/01/12 09:08:31;;;;;;;15.38;7.93;;;21.10;43.80;;;;;;4966722;28;92579;-89
2024/01/12 09:10:57;;;;;;;21.23;8.35;;;21.10;43.80;;;;;;4969775;28;92597;-92
2024/01/12 09:13:23;;;;;;;22.88;8.60;;;21.20;44.10;;;;;;4963104;28;94158;-91
2024/01/12 09:15:48;;;;;;;25.95;8.40;;;21.30;44.50;;;;;;4964565;28;92420;-93
2024/01/12 09:18:14;;;;;;;23.58;8.45;;;21.30;44.60;;;;;;4958972;28;92461;-94
2024/01/12 09:20:40;;;;;;;23.65;8.15;;;21.40;45.20;;;;;;4963047;28;91318;-90
2024/01/12 09:23:06;;;;;;;19.85;8.52;;;21.50;45.90;;;;;;4960574;28;96002;-94
2024/01/12 09:25:34;;;;;;;16.65;7.50;;;21.50;45.80;;;;;;4963958;28;92539;-94
2024/01/12 09:28:00;;;;;;;21.98;7.43;;;21.60;46.20;;;;;;4963764;28;93687;-87
2024/01/12 09:30:26;;;;;;;25.42;8.05;;;21.60;45.80;;;;;;4965831;28;92049;-89
2024/01/12 09:32:51;;;;;;;18.17;7.47;;;21.80;45.60;;;;;;4965518;28;95242;-89
2024/01/12 09:35:17;;;;;;;21.85;8.48;;;21.70;45.30;;;;;;4965490;28;92550;-90
2024/01/12 09:37:43;;;;;;;20.40;8.65;;;21.70;46.10;;;;;;4959106;28;92539;-90
2024/01/12 09:40:10;;;;;;;19.02;8.40;;;21.60;46.90;;;;;;4959990;28;92553;-91
2024/01/12 09:42:41;;;;;;;20.05;8.15;;;21.60;46.30;;;;;;4957772;28;94956;-93
2024/01/12 09:45:16;;;;;;;23.95;9.65;;;21.60;46.40;;;;;;4960567;28;92504;-94
2024/01/12 09:47:42;;;;;;;27.83;9.65;;;21.60;46.70;;;;;;4958673;28;92589;-93
2024/01/12 09:50:10;;;;;;;21.40;8.27;;;21.60;46.80;;;;;;4961251;28;92684;-89
2024/01/12 09:52:36;;;;;;;25.23;10.32;;;21.50;46.50;;;;;;4977891;22;93429;-59
2024/01/12 09:55:02;;;;;;;19.92;8.75;;;21.50;46.50;;;;;;4946405;28;93965;-59
2024/01/12 09:57:28;;;;;;;23.80;8.90;;;21.50;46.40;;;;;;4957749;28;92349;-60
2024/01/12 09:59:55;;;;;;;19.38;8.35;;;21.50;46.50;;;;;;4944301;28;92260;-60
2024/01/12 10:02:21;;;;;;;21.00;9.05;;;21.50;46.40;;;;;;4941255;28;93665;-59
2024/01/12 10:04:47;;;;;;;17.30;7.45;;;21.50;46.60;;;;;;4946178;28;93217;-60
2024/01/12 10:07:13;;;;;;;17.02;7.30;;;21.50;46.40;;;;;;4944598;28;92575;-60
2024/01/12 10:09:40;;;;;;;15.90;7.72;;;21.50;46.70;;;;;;4959380;28;92476;-60
2024/01/12 10:12:06;;;;;;;16.48;7.57;;;21.50;46.70;;;;;;4952412;28;92730;-60
2024/01/12 10:14:32;;;;;;;15.73;7.28;;;21.50;47.20;;;;;;4944009;28;94119;-60
2024/01/12 10:16:59;;;;;;;16.95;7.45;;;21.50;46.90;;;;;;4944639;28;93230;-60
2024/01/12 10:19:25;;;;;;;20.90;8.15;;;21.60;47.10;;;;;;4944172;28;92671;-63
2024/01/12 10:21:52;;;;;;;19.17;7.72;;;21.60;46.90;;;;;;4947313;28;93692;-60
2024/01/12 10:24:20;;;;;;;21.42;8.13;;;21.60;47.10;;;;;;4945669;28;93101;-60
2024/01/12 10:26:47;;;;;;;17.35;6.95;;;21.60;47.00;;;;;;4956515;28;93205;-60
2024/01/12 10:29:14;;;;;;;16.35;8.20;;;21.60;47.60;;;;;;4942786;28;92879;-60
2024/01/12 10:31:44;;;;;;;15.77;6.68;;;21.60;47.30;;;;;;4959368;28;92682;-60
2024/01/12 10:34:11;;;;;;;12.40;5.97;;;21.60;47.60;;;;;;4943248;28;92983;-60
2024/01/12 10:36:41;;;;;;;18.65;8.40;;;21.60;47.90;;;;;;4945987;28;93453;-60
2024/01/12 10:39:09;;;;;;;17.20;6.93;;;21.50;47.70;;;;;;4946658;28;93641;-60
2024/01/12 10:41:35;;;;;;;15.27;7.85;;;21.50;47.80;;;;;;4948025;28;95488;-59
2024/01/12 10:44:04;;;;;;;17.65;7.10;;;21.50;47.60;;;;;;4944712;28;94450;-60
2024/01/12 10:46:50;;;;;;;17.83;7.07;;;21.50;47.50;;;;;;4948943;28;92515;-59
2024/01/12 10:49:22;;;;;;;14.93;6.25;;;21.50;47.60;;;;;;4964017;28;92620;-60
2024/01/12 10:52:21;;;;;;;14.27;6.53;;;21.50;47.70;;;;;;4944295;28;92590;-59
2024/01/12 10:55:07;;;;;;;16.90;7.20;;;21.60;47.70;;;;;;4946659;28;92038;-60
2024/01/12 10:57:33;;;;;;;12.43;6.05;;;21.60;47.50;;;;;;4953662;28;92506;-60
2024/01/12 11:00:00;;;;;;;13.70;6.05;;;21.60;47.50;;;;;;4947291;28;92327;-60
2024/01/12 11:02:26;;;;;;;15.63;6.75;;;21.60;47.60;;;;;;4945284;28;92783;-60
2024/01/12 11:04:53;;;;;;;15.00;7.22;;;21.60;47.60;;;;;;4958469;28;93190;-62
2024/01/12 11:07:19;;;;;;;16.63;7.20;;;21.60;48.20;;;;;;4943620;28;93314;-60
2024/01/12 11:09:44;;;;;;;14.82;6.95;;;21.60;47.70;;;;;;4943978;28;92822;-59
2024/01/12 11:12:15;;;;;;;12.43;6.15;;;21.60;47.70;;;;;;4946508;28;93113;-60
2024/01/12 11:14:42;;;;;;;12.40;6.90;;;21.60;47.80;;;;;;4954677;28;92716;-60
2024/01/12 11:17:07;;;;;;;13.02;6.55;;;21.60;47.70;;;;;;4944163;28;92715;-60
2024/01/12 11:19:34;;;;;;;12.65;6.57;;;21.60;47.90;;;;;;4945776;28;92085;-60
2024/01/12 11:22:03;;;;;;;16.30;7.47;;;21.50;47.90;;;;;;4944484;28;94196;-60
2024/01/12 11:24:30;;;;;;;13.38;7.25;;;21.50;47.60;;;;;;4945723;28;92703;-60
2024/01/12 11:26:55;;;;;;;14.00;6.82;;;21.50;47.50;;;;;;4954089;28;92746;-60
2024/01/12 11:29:28;;;;;;;11.00;5.75;;;21.50;47.40;;;;;;4954265;28;92704;-61
2024/01/12 11:31:55;;;;;;;11.85;4.93;;;21.50;47.30;;;;;;4951234;28;93587;-60
2024/01/12 11:34:21;;;;;;;13.85;6.20;;;21.60;47.30;;;;;;4949835;28;93761;-60
2024/01/12 11:36:59;;;;;;;11.10;5.28;;;21.60;47.30;;;;;;4952223;28;92556;-60
2024/01/12 11:39:25;;;;;;;12.73;5.78;;;21.60;47.70;;;;;;4946033;28;92184;-60
2024/01/12 11:41:58;;;;;;;12.48;6.13;;;21.60;47.60;;;;;;4927016;28;93276;-60
2024/01/12 11:44:25;;;;;;;15.35;7.10;;;21.60;47.40;;;;;;4950444;28;93749;-60
2024/01/12 11:46:51;;;;;;;12.77;5.85;;;21.60;47.40;;;;;;4948770;28;92408;-60
2024/01/12 11:49:18;;;;;;;11.10;6.40;;;21.60;47.60;;;;;;4961048;28;91815;-60
2024/01/12 11:51:44;;;;;;;12.02;6.15;;;21.50;47.40;;;;;;4943395;28;93082;-59
2024/01/12 11:54:10;;;;;;;9.82;5.38;;;21.50;47.50;;;;;;4951694;28;94231;-60
2024/01/12 11:56:36;;;;;;;9.10;5.53;;;21.50;47.60;;;;;;4952523;28;93912;-60
2024/01/12 11:59:02;;;;;;;14.02;5.57;;;21.50;47.50;;;;;;4946574;28;92677;-60
2024/01/12 12:01:28;;;;;;;11.52;6.60;;;21.50;47.30;;;;;;4943654;28;94275;-60
2024/01/12 12:03:54;;;;;;;7.13;4.25;;;21.50;47.50;;;;;;4947662;28;92820;-59
2024/01/12 12:06:20;;;;;;;8.52;4.75;;;21.50;47.30;;;;;;4947806;28;92409;-59
2024/01/12 12:08:47;;;;;;;8.00;4.60;;;21.60;47.60;;;;;;4943521;28;92897;-60
2024/01/12 12:11:14;;;;;;;13.05;5.40;;;21.60;47.50;;;;;;4952439;28;92934;-60
2024/01/12 12:13:41;;;;;;;9.13;4.93;;;21.60;47.40;;;;;;4942850;28;92856;-60
2024/01/12 12:16:08;;;;;;;9.90;4.63;;;21.60;47.40;;;;;;4935258;28;92230;-60
2024/01/12 12:18:37;;;;;;;12.05;5.13;;;21.60;47.60;;;;;;4944029;28;92769;-60
2024/01/12 12:21:02;;;;;;;11.20;4.53;;;21.60;47.50;;;;;;4938521;28;94770;-60
2024/01/12 12:23:30;;;;;;;9.75;4.65;;;21.60;47.50;;;;;;4955986;28;92826;-61
2024/01/12 12:25:56;;;;;;;9.40;5.32;;;21.60;47.60;;;;;;4957199;28;93150;-62
2024/01/12 12:28:22;;;;;;;9.35;4.63;;;21.70;47.40;;;;;;4943268;28;92575;-60
2024/01/12 12:30:50;;;;;;;11.20;4.72;;;21.80;47.50;;;;;;4966043;28;94211;-60
2024/01/12 12:33:16;;;;;;;10.70;4.45;;;21.80;47.50;;;;;;4948567;28;92708;-60
2024/01/12 12:35:42;;;;;;;8.07;4.28;;;21.90;47.20;;;;;;4947254;28;92756;-60
2024/01/12 12:38:07;;;;;;;10.60;3.92;;;22.00;47.20;;;;;;4962006;28;92297;-61